sensor_id;sensor_type;location;lat;lon;timestamp;pressure;altitude;pressure_sealevel;temperature
48854;BMP280;34673;52.808;17.856;2022-10-23T00:01:33;100430.38;;;12.52
48854;BMP280;34673;52.808;17.856;2022-10-23T00:04:08;100413.28;;;12.38
48854;BMP280;34673;52.808;17.856;2022-10-23T00:06:37;100432.13;;;12.50
48854;BMP280;34673;52.808;17.856;2022-10-23T00:09:06;100440.75;;;12.52
48854;BMP280;34673;52.808;17.856;2022-10-23T00:11:34;100442.47;;;12.53
48854;BMP280;34673;52.808;17.856;2022-10-23T00:14:03;100440.75;;;12.52
48854;BMP280;34673;52.808;17.856;2022-10-23T00:16:32;100437.31;;;12.50
48854;BMP280;34673;52.808;17.856;2022-10-23T00:18:59;100446.81;;;12.52
48854;BMP280;34673;52.808;17.856;2022-10-23T00:21:27;100447.66;;;12.53
48854;BMP280;34673;52.808;17.856;2022-10-23T00:23:54;100440.88;;;12.42
48854;BMP280;34673;52.808;17.856;2022-10-23T00:26:22;100451.13;;;12.52
48854;BMP280;34673;52.808;17.856;2022-10-23T00:28:51;100419.38;;;12.34
48854;BMP280;34673;52.808;17.856;2022-10-23T00:31:20;100445.94;;;12.52
48854;BMP280;34673;52.808;17.856;2022-10-23T00:33:49;100418.50;;;12.35
48854;BMP280;34673;52.808;17.856;2022-10-23T00:36:18;100432.28;;;12.40
48854;BMP280;34673;52.808;17.856;2022-10-23T00:38:46;100451.13;;;12.52
48854;BMP280;34673;52.808;17.856;2022-10-23T00:41:20;100375.69;;;12.07
48854;BMP280;34673;52.808;17.856;2022-10-23T00:44:05;100447.69;;;12.50
48854;BMP280;34673;52.808;17.856;2022-10-23T00:46:34;100433.13;;;12.41
48854;BMP280;34673;52.808;17.856;2022-10-23T00:49:02;100447.75;;;12.47
48854;BMP280;34673;52.808;17.856;2022-10-23T00:51:48;100444.34;;;12.41
48854;BMP280;34673;52.808;17.856;2022-10-23T00:54:20;100385.16;;;12.11
48854;BMP280;34673;52.808;17.856;2022-10-23T00:56:53;100412.72;;;12.16
48854;BMP280;34673;52.808;17.856;2022-10-23T00:59:22;100417.72;;;12.29
48854;BMP280;34673;52.808;17.856;2022-10-23T01:01:50;100439.13;;;12.45
48854;BMP280;34673;52.808;17.856;2022-10-23T01:04:18;100437.38;;;12.47
48854;BMP280;34673;52.808;17.856;2022-10-23T01:12:25;100431.28;;;12.48
48854;BMP280;34673;52.808;17.856;2022-10-23T01:18:24;100413.22;;;12.41
48854;BMP280;34673;52.808;17.856;2022-10-23T01:21:05;100430.44;;;12.49
48854;BMP280;34673;52.808;17.856;2022-10-23T01:29:41;100426.94;;;12.50
48854;BMP280;34673;52.808;17.856;2022-10-23T01:32:16;100428.66;;;12.51
48854;BMP280;34673;52.808;17.856;2022-10-23T01:37:48;100387.44;;;12.29
48854;BMP280;34673;52.808;17.856;2022-10-23T01:40:46;100423.44;;;12.51
48854;BMP280;34673;52.808;17.856;2022-10-23T01:43:21;100423.44;;;12.51
48854;BMP280;34673;52.808;17.856;2022-10-23T01:45:58;100420.06;;;12.49
48854;BMP280;34673;52.808;17.856;2022-10-23T01:48:29;100377.22;;;12.20
48854;BMP280;34673;52.808;17.856;2022-10-23T01:51:00;100380.56;;;12.27
48854;BMP280;34673;52.808;17.856;2022-10-23T01:53:34;100418.31;;;12.48
48854;BMP280;34673;52.808;17.856;2022-10-23T01:56:09;100412.28;;;12.47
48854;BMP280;34673;52.808;17.856;2022-10-23T01:58:41;100411.41;;;12.47
48854;BMP280;34673;52.808;17.856;2022-10-23T02:01:11;100399.31;;;12.46
48854;BMP280;34673;52.808;17.856;2022-10-23T02:03:47;100414.88;;;12.46
48854;BMP280;34673;52.808;17.856;2022-10-23T02:06:16;100400.31;;;12.37
48854;BMP280;34673;52.808;17.856;2022-10-23T02:08:43;100415.78;;;12.43
48854;BMP280;34673;52.808;17.856;2022-10-23T02:11:19;100423.59;;;12.41
48854;BMP280;34673;52.808;17.856;2022-10-23T02:14:08;100427.09;;;12.40
48854;BMP280;34673;52.808;17.856;2022-10-23T02:28:01;100405.00;;;12.12
48854;BMP280;34673;52.808;17.856;2022-10-23T02:30:40;100430.69;;;12.30
48854;BMP280;34673;52.808;17.856;2022-10-23T02:33:11;100439.31;;;12.32
48854;BMP280;34673;52.808;17.856;2022-10-23T02:35:40;100427.34;;;12.22
48854;BMP280;34673;52.808;17.856;2022-10-23T02:38:32;100434.13;;;12.32
48854;BMP280;34673;52.808;17.856;2022-10-23T02:49:33;100420.47;;;12.18
48854;BMP280;34673;52.808;17.856;2022-10-23T02:54:52;100451.34;;;12.35
48854;BMP280;34673;52.808;17.856;2022-10-23T02:57:32;100453.94;;;12.35
48854;BMP280;34673;52.808;17.856;2022-10-23T03:00:14;100449.63;;;12.35
48854;BMP280;34673;52.808;17.856;2022-10-23T03:03:11;100452.22;;;12.35
48854;BMP280;34673;52.808;17.856;2022-10-23T03:05:41;100422.31;;;12.10
48854;BMP280;34673;52.808;17.856;2022-10-23T03:08:13;100459.13;;;12.36
48854;BMP280;34673;52.808;17.856;2022-10-23T03:10:41;100458.22;;;12.37
48854;BMP280;34673;52.808;17.856;2022-10-23T03:13:09;100463.41;;;12.37
48854;BMP280;34673;52.808;17.856;2022-10-23T03:15:42;100424.00;;;12.12
48854;BMP280;34673;52.808;17.856;2022-10-23T03:18:13;100429.13;;;12.17
48854;BMP280;34673;52.808;17.856;2022-10-23T03:20:45;100453.09;;;12.34
48854;BMP280;34673;52.808;17.856;2022-10-23T03:23:13;100423.06;;;12.18
48854;BMP280;34673;52.808;17.856;2022-10-23T03:25:41;100459.97;;;12.38
48854;BMP280;34673;52.808;17.856;2022-10-23T03:28:19;100460.81;;;12.37
48854;BMP280;34673;52.808;17.856;2022-10-23T03:30:46;100424.75;;;12.20
48854;BMP280;34673;52.808;17.856;2022-10-23T03:33:14;100464.22;;;12.44
48854;BMP280;34673;52.808;17.856;2022-10-23T03:35:41;100424.75;;;12.22
48854;BMP280;34673;52.808;17.856;2022-10-23T03:38:14;100461.56;;;12.46
48854;BMP280;34673;52.808;17.856;2022-10-23T03:40:41;100458.22;;;12.40
48854;BMP280;34673;52.808;17.856;2022-10-23T03:43:11;100464.16;;;12.46
48854;BMP280;34673;52.808;17.856;2022-10-23T03:45:38;100468.56;;;12.44
48854;BMP280;34673;52.808;17.856;2022-10-23T03:48:06;100468.50;;;12.47
48854;BMP280;34673;52.808;17.856;2022-10-23T03:50:35;100465.03;;;12.48
48854;BMP280;34673;52.808;17.856;2022-10-23T03:53:04;100432.38;;;12.31
48854;BMP280;34673;52.808;17.856;2022-10-23T03:55:33;100365.53;;;11.88
48854;BMP280;34673;52.808;17.856;2022-10-23T03:58:00;100470.22;;;12.48
48854;BMP280;34673;52.808;17.856;2022-10-23T04:00:27;100402.53;;;12.03
48854;BMP280;34673;52.808;17.856;2022-10-23T04:02:55;100472.75;;;12.52
48854;BMP280;34673;52.808;17.856;2022-10-23T04:05:22;100460.63;;;12.53
48854;BMP280;34673;52.808;17.856;2022-10-23T04:07:53;100464.09;;;12.52
48854;BMP280;34673;52.808;17.856;2022-10-23T04:10:21;100434.13;;;12.29
48854;BMP280;34673;52.808;17.856;2022-10-23T04:12:49;100462.38;;;12.52
48854;BMP280;34673;52.808;17.856;2022-10-23T04:15:16;100437.41;;;12.44
48854;BMP280;34673;52.808;17.856;2022-10-23T04:17:45;100451.13;;;12.52
48854;BMP280;34673;52.808;17.856;2022-10-23T04:20:12;100420.31;;;12.30
48854;BMP280;34673;52.808;17.856;2022-10-23T04:22:39;100458.81;;;12.58
48854;BMP280;34673;52.808;17.856;2022-10-23T04:25:08;100455.38;;;12.56
48854;BMP280;34673;52.808;17.856;2022-10-23T04:27:36;100459.72;;;12.57
48854;BMP280;34673;52.808;17.856;2022-10-23T04:30:03;100463.13;;;12.59
48854;BMP280;34673;52.808;17.856;2022-10-23T04:32:31;100454.53;;;12.57
48854;BMP280;34673;52.808;17.856;2022-10-23T04:34:58;100457.94;;;12.59
48854;BMP280;34673;52.808;17.856;2022-10-23T04:37:25;100445.91;;;12.55
48854;BMP280;34673;52.808;17.856;2022-10-23T04:39:54;100425.31;;;12.42
48854;BMP280;34673;52.808;17.856;2022-10-23T04:42:21;100412.41;;;12.38
48854;BMP280;34673;52.808;17.856;2022-10-23T04:44:48;100456.13;;;12.64
48854;BMP280;34673;52.808;17.856;2022-10-23T04:47:15;100453.56;;;12.62
48854;BMP280;34673;52.808;17.856;2022-10-23T04:49:57;100397.81;;;12.29
48854;BMP280;34673;52.808;17.856;2022-10-23T04:52:44;100461.28;;;12.67
48854;BMP280;34673;52.808;17.856;2022-10-23T04:55:34;100451.84;;;12.63
48854;BMP280;34673;52.808;17.856;2022-10-23T04:58:11;100460.47;;;12.63
48854;BMP280;34673;52.808;17.856;2022-10-23T05:00:39;100456.06;;;12.67
48854;BMP280;34673;52.808;17.856;2022-10-23T05:03:08;100445.75;;;12.64
48854;BMP280;34673;52.808;17.856;2022-10-23T05:05:40;100453.53;;;12.66
48854;BMP280;34673;52.808;17.856;2022-10-23T05:08:26;100463.84;;;12.69
48854;BMP280;34673;52.808;17.856;2022-10-23T05:11:33;100428.69;;;12.48
48854;BMP280;34673;52.808;17.856;2022-10-23T05:14:05;100468.25;;;12.65
48854;BMP280;34673;52.808;17.856;2022-10-23T05:16:40;100479.38;;;12.70
48854;BMP280;34673;52.808;17.856;2022-10-23T05:19:13;100476.84;;;12.69
48854;BMP280;34673;52.808;17.856;2022-10-23T05:21:50;100451.13;;;12.52
48854;BMP280;34673;52.808;17.856;2022-10-23T05:24:30;100473.44;;;12.65
48854;BMP280;34673;52.808;17.856;2022-10-23T05:27:00;100478.63;;;12.65
48854;BMP280;34673;52.808;17.856;2022-10-23T05:29:29;100487.22;;;12.67
48854;BMP280;34673;52.808;17.856;2022-10-23T05:32:00;100458.97;;;12.49
48854;BMP280;34673;52.808;17.856;2022-10-23T05:34:31;100388.63;;;12.08
48854;BMP280;34673;52.808;17.856;2022-10-23T05:37:00;100490.69;;;12.68
48854;BMP280;34673;52.808;17.856;2022-10-23T05:39:32;100480.31;;;12.66
48854;BMP280;34673;52.808;17.856;2022-10-23T05:42:00;100485.47;;;12.69
48854;BMP280;34673;52.808;17.856;2022-10-23T05:44:28;100482.03;;;12.67
48854;BMP280;34673;52.808;17.856;2022-10-23T05:47:13;100483.78;;;12.68
48854;BMP280;34673;52.808;17.856;2022-10-23T05:50:10;100487.22;;;12.67
48854;BMP280;34673;52.808;17.856;2022-10-23T05:52:56;100488.09;;;12.68
48854;BMP280;34673;52.808;17.856;2022-10-23T05:55:46;100487.28;;;12.64
48854;BMP280;34673;52.808;17.856;2022-10-23T05:58:32;100486.38;;;12.68
48854;BMP280;34673;52.808;17.856;2022-10-23T06:01:26;100486.38;;;12.67
48854;BMP280;34673;52.808;17.856;2022-10-23T06:04:04;100482.94;;;12.64
48854;BMP280;34673;52.808;17.856;2022-10-23T06:06:57;100463.22;;;12.54
48854;BMP280;34673;52.808;17.856;2022-10-23T06:09:25;100478.63;;;12.65
48854;BMP280;34673;52.808;17.856;2022-10-23T06:11:55;100427.28;;;12.25
48854;BMP280;34673;52.808;17.856;2022-10-23T06:14:23;100495.84;;;12.69
48854;BMP280;34673;52.808;17.856;2022-10-23T06:16:50;100468.44;;;12.51
48854;BMP280;34673;52.808;17.856;2022-10-23T06:19:18;100502.78;;;12.67
48854;BMP280;34673;52.808;17.856;2022-10-23T06:21:50;100477.09;;;12.52
48854;BMP280;34673;52.808;17.856;2022-10-23T06:24:17;100450.50;;;12.34
48854;BMP280;34673;52.808;17.856;2022-10-23T06:26:52;100485.78;;;12.48
48854;BMP280;34673;52.808;17.856;2022-10-23T06:29:40;100518.41;;;12.64
48854;BMP280;34673;52.808;17.856;2022-10-23T06:32:07;100425.78;;;12.09
48854;BMP280;34673;52.808;17.856;2022-10-23T06:34:35;100458.31;;;12.33
48854;BMP280;34673;52.808;17.856;2022-10-23T06:37:03;100502.88;;;12.61
48854;BMP280;34673;52.808;17.856;2022-10-23T06:39:53;100509.84;;;12.59
48854;BMP280;34673;52.808;17.856;2022-10-23T06:42:36;100517.56;;;12.62
48854;BMP280;34673;52.808;17.856;2022-10-23T06:45:39;100521.06;;;12.61
48854;BMP280;34673;52.808;17.856;2022-10-23T06:48:13;100514.97;;;12.62
48854;BMP280;34673;52.808;17.856;2022-10-23T06:51:07;100521.06;;;12.61
48854;BMP280;34673;52.808;17.856;2022-10-23T06:53:40;100520.25;;;12.56
48854;BMP280;34673;52.808;17.856;2022-10-23T06:56:30;100501.44;;;12.41
48854;BMP280;34673;52.808;17.856;2022-10-23T06:58:59;100538.38;;;12.60
48854;BMP280;34673;52.808;17.856;2022-10-23T07:01:27;100516.88;;;12.51
48854;BMP280;34673;52.808;17.856;2022-10-23T07:03:55;100534.03;;;12.61
48854;BMP280;34673;52.808;17.856;2022-10-23T07:06:25;100509.94;;;12.53
48854;BMP280;34673;52.808;17.856;2022-10-23T07:08:52;100477.38;;;12.30
48854;BMP280;34673;52.808;17.856;2022-10-23T07:11:49;100530.53;;;12.62
48854;BMP280;34673;52.808;17.856;2022-10-23T07:14:23;100528.84;;;12.61
48854;BMP280;34673;52.808;17.856;2022-10-23T07:16:53;100539.19;;;12.64
48854;BMP280;34673;52.808;17.856;2022-10-23T07:19:20;100540.94;;;12.62
48854;BMP280;34673;52.808;17.856;2022-10-23T07:22:02;100542.63;;;12.66
48854;BMP280;34673;52.808;17.856;2022-10-23T07:24:39;100505.72;;;12.42
48854;BMP280;34673;52.808;17.856;2022-10-23T07:27:26;100523.75;;;12.55
48854;BMP280;34673;52.808;17.856;2022-10-23T07:29:56;100532.28;;;12.63
48854;BMP280;34673;52.808;17.856;2022-10-23T07:32:27;100542.63;;;12.66
48854;BMP280;34673;52.808;17.856;2022-10-23T07:35:13;100496.19;;;12.45
48854;BMP280;34673;52.808;17.856;2022-10-23T07:37:51;100515.09;;;12.54
48854;BMP280;34673;52.808;17.856;2022-10-23T07:40:19;100539.06;;;12.73
48854;BMP280;34673;52.808;17.856;2022-10-23T07:42:50;100468.59;;;12.37
48854;BMP280;34673;52.808;17.856;2022-10-23T07:45:17;100526.75;;;12.88
48854;BMP280;34673;52.808;17.856;2022-10-23T07:47:50;100521.50;;;12.91
48854;BMP280;34673;52.808;17.856;2022-10-23T07:50:21;100530.09;;;12.94
48854;BMP280;34673;52.808;17.856;2022-10-23T07:52:48;100526.53;;;13.03
48854;BMP280;34673;52.808;17.856;2022-10-23T07:55:16;100526.47;;;13.06
48854;BMP280;34673;52.808;17.856;2022-10-23T07:57:51;100495.44;;;12.97
48854;BMP280;34673;52.808;17.856;2022-10-23T08:00:39;100506.38;;;13.16
48854;BMP280;34673;52.808;17.856;2022-10-23T08:03:19;100530.28;;;13.38
48854;BMP280;34673;52.808;17.856;2022-10-23T08:05:46;100527.66;;;13.41
48854;BMP280;34673;52.808;17.856;2022-10-23T08:08:14;100514.88;;;13.30
48854;BMP280;34673;52.808;17.856;2022-10-23T08:10:46;100534.56;;;13.42
48854;BMP280;34673;52.808;17.856;2022-10-23T08:13:20;100532.94;;;13.35
48854;BMP280;34673;52.808;17.856;2022-10-23T08:15:57;100538.16;;;13.35
48854;BMP280;34673;52.808;17.856;2022-10-23T08:19:01;100530.44;;;13.30
48854;BMP280;34673;52.808;17.856;2022-10-23T08:21:29;100541.75;;;13.27
48854;BMP280;34673;52.808;17.856;2022-10-23T08:23:57;100547.81;;;13.26
48854;BMP280;34673;52.808;17.856;2022-10-23T08:26:26;100534.81;;;13.26
48854;BMP280;34673;52.808;17.856;2022-10-23T08:28:58;100545.22;;;13.26
48854;BMP280;34673;52.808;17.856;2022-10-23T08:31:27;100554.75;;;13.26
48854;BMP280;34673;52.808;17.856;2022-10-23T08:34:20;100509.19;;;13.03
48854;BMP280;34673;52.808;17.856;2022-10-23T08:36:50;100548.66;;;13.25
48854;BMP280;34673;52.808;17.856;2022-10-23T08:39:18;100547.81;;;13.26
48854;BMP280;34673;52.808;17.856;2022-10-23T08:42:03;100553.88;;;13.24
48854;BMP280;34673;52.808;17.856;2022-10-23T08:44:54;100555.59;;;13.26
48854;BMP280;34673;52.808;17.856;2022-10-23T08:47:46;100560.78;;;13.26
48854;BMP280;34673;52.808;17.856;2022-10-23T08:50:53;100553.88;;;13.25
48854;BMP280;34673;52.808;17.856;2022-10-23T08:56:27;100553.13;;;13.17
48854;BMP280;34673;52.808;17.856;2022-10-23T08:59:08;100567.72;;;13.24
48854;BMP280;34673;52.808;17.856;2022-10-23T09:01:43;100571.22;;;13.23
48854;BMP280;34673;52.808;17.856;2022-10-23T09:04:13;100573.81;;;13.23
48854;BMP280;34673;52.808;17.856;2022-10-23T09:12:12;100580.72;;;13.26
48854;BMP280;34673;52.808;17.856;2022-10-23T09:14:43;100573.78;;;13.26
48854;BMP280;34673;52.808;17.856;2022-10-23T09:17:59;100574.63;;;13.28
48854;BMP280;34673;52.808;17.856;2022-10-23T09:20:32;100580.63;;;13.34
48854;BMP280;34673;52.808;17.856;2022-10-23T09:23:11;100571.09;;;13.33
48854;BMP280;34673;52.808;17.856;2022-10-23T09:25:41;100504.97;;;12.96
48854;BMP280;34673;52.808;17.856;2022-10-23T09:28:19;100577.84;;;13.43
48854;BMP280;34673;52.808;17.856;2022-10-23T09:30:47;100582.16;;;13.45
48854;BMP280;34673;52.808;17.856;2022-10-23T09:33:24;100584.78;;;13.44
48854;BMP280;34673;52.808;17.856;2022-10-23T09:38:28;100575.91;;;13.56
48854;BMP280;34673;52.808;17.856;2022-10-23T09:41:02;100578.47;;;13.59
48854;BMP280;34673;52.808;17.856;2022-10-23T09:43:32;100582.69;;;13.64
48854;BMP280;34673;52.808;17.856;2022-10-23T09:46:05;100588.63;;;13.72
48854;BMP280;34673;52.808;17.856;2022-10-23T09:48:34;100580.88;;;13.69
48854;BMP280;34673;52.808;17.856;2022-10-23T09:51:12;100554.28;;;13.53
48854;BMP280;34673;52.808;17.856;2022-10-23T09:56:34;100541.41;;;13.46
48854;BMP280;34673;52.808;17.856;2022-10-23T10:01:56;100584.47;;;13.62
48854;BMP280;34673;52.808;17.856;2022-10-23T10:04:47;100577.63;;;13.58
48854;BMP280;34673;52.808;17.856;2022-10-23T10:07:23;100579.31;;;13.59
48854;BMP280;34673;52.808;17.856;2022-10-23T10:09:52;100581.06;;;13.60
48854;BMP280;34673;52.808;17.856;2022-10-23T10:12:49;100581.06;;;13.60
48854;BMP280;34673;52.808;17.856;2022-10-23T10:15:32;100519.31;;;13.20
48854;BMP280;34673;52.808;17.856;2022-10-23T10:18:16;100563.78;;;13.56
48854;BMP280;34673;52.808;17.856;2022-10-23T10:26:39;100586.91;;;13.71
48854;BMP280;34673;52.808;17.856;2022-10-23T10:32:02;100592.97;;;13.73
48854;BMP280;34673;52.808;17.856;2022-10-23T10:51:40;100592.06;;;13.76
48854;BMP280;34673;52.808;17.856;2022-10-23T10:54:19;100589.41;;;13.78
48854;BMP280;34673;52.808;17.856;2022-10-23T10:56:48;100587.66;;;13.80
48854;BMP280;34673;52.808;17.856;2022-10-23T10:59:37;100584.19;;;13.79
48854;BMP280;34673;52.808;17.856;2022-10-23T11:02:41;100570.47;;;13.69
48854;BMP280;34673;52.808;17.856;2022-10-23T11:08:04;100582.56;;;13.73
48854;BMP280;34673;52.808;17.856;2022-10-23T11:10:34;100573.97;;;13.68
48854;BMP280;34673;52.808;17.856;2022-10-23T11:13:04;100560.25;;;13.60
48854;BMP280;34673;52.808;17.856;2022-10-23T11:15:38;100577.34;;;13.73
48854;BMP280;34673;52.808;17.856;2022-10-23T11:18:23;100577.25;;;13.80
48854;BMP280;34673;52.808;17.856;2022-10-23T11:27:21;100526.47;;;13.60
48854;BMP280;34673;52.808;17.856;2022-10-23T11:30:03;100563.19;;;13.90
48854;BMP280;34673;52.808;17.856;2022-10-23T11:41:21;100549.88;;;14.05
48854;BMP280;34673;52.808;17.856;2022-10-23T11:44:00;100547.13;;;14.14
48854;BMP280;34673;52.808;17.856;2022-10-23T11:46:33;100552.19;;;14.21
48854;BMP280;34673;52.808;17.856;2022-10-23T11:49:03;100558.16;;;14.26
48854;BMP280;34673;52.808;17.856;2022-10-23T11:51:37;100551.94;;;14.33
48854;BMP280;34673;52.808;17.856;2022-10-23T11:59:30;100541.22;;;14.48
48854;BMP280;34673;52.808;17.856;2022-10-23T12:02:00;100546.34;;;14.51
48854;BMP280;34673;52.808;17.856;2022-10-23T12:04:44;100542.00;;;14.53
48854;BMP280;34673;52.808;17.856;2022-10-23T12:07:24;100544.63;;;14.53
48854;BMP280;34673;52.808;17.856;2022-10-23T12:09:57;100536.72;;;14.56
48854;BMP280;34673;52.808;17.856;2022-10-23T12:12:30;100529.84;;;14.54
48854;BMP280;34673;52.808;17.856;2022-10-23T12:15:18;100526.56;;;14.44
48854;BMP280;34673;52.808;17.856;2022-10-23T12:17:48;100536.78;;;14.52
48854;BMP280;34673;52.808;17.856;2022-10-23T12:20:37;100545.56;;;14.48
48854;BMP280;34673;52.808;17.856;2022-10-23T12:40:07;100548.59;;;14.28
48854;BMP280;34673;52.808;17.856;2022-10-23T12:42:36;100536.53;;;14.24
48854;BMP280;34673;52.808;17.856;2022-10-23T12:45:27;100510.03;;;14.03
48854;BMP280;34673;52.808;17.856;2022-10-23T12:47:56;100541.78;;;14.21
48854;BMP280;34673;52.808;17.856;2022-10-23T12:50:26;100540.09;;;14.19
48854;BMP280;34673;52.808;17.856;2022-10-23T12:52:54;100536.72;;;14.14
48854;BMP280;34673;52.808;17.856;2022-10-23T12:55:24;100470.66;;;13.78
48854;BMP280;34673;52.808;17.856;2022-10-23T12:57:52;100533.22;;;14.15
48854;BMP280;34673;52.808;17.856;2022-10-23T13:00:22;100529.72;;;14.16
48854;BMP280;34673;52.808;17.856;2022-10-23T13:02:58;100514.25;;;14.10
48854;BMP280;34673;52.808;17.856;2022-10-23T13:05:25;100525.31;;;14.20
48854;BMP280;34673;52.808;17.856;2022-10-23T13:07:53;100524.41;;;14.23
48854;BMP280;34673;52.808;17.856;2022-10-23T13:10:32;100522.63;;;14.25
48854;BMP280;34673;52.808;17.856;2022-10-23T13:13:05;100488.22;;;14.10
48854;BMP280;34673;52.808;17.856;2022-10-23T13:15:41;100481.31;;;14.09
48854;BMP280;34673;52.808;17.856;2022-10-23T13:18:10;100515.56;;;14.30
48854;BMP280;34673;52.808;17.856;2022-10-23T13:23:25;100519.06;;;14.29
48854;BMP280;34673;52.808;17.856;2022-10-23T13:25:56;100522.56;;;14.28
48854;BMP280;34673;52.808;17.856;2022-10-23T13:28:40;100509.78;;;14.17
48854;BMP280;34673;52.808;17.856;2022-10-23T13:33:45;100516.63;;;14.21
48854;BMP280;34673;52.808;17.856;2022-10-23T13:41:21;100517.59;;;14.15
48854;BMP280;34673;52.808;17.856;2022-10-23T13:43:48;100512.47;;;14.12
48854;BMP280;34673;52.808;17.856;2022-10-23T13:46:17;100522.94;;;14.09
48854;BMP280;34673;52.808;17.856;2022-10-23T13:48:45;100522.94;;;14.09
48854;BMP280;34673;52.808;17.856;2022-10-23T13:51:18;100523.81;;;14.08
48854;BMP280;34673;52.808;17.856;2022-10-23T13:53:46;100515.19;;;14.06
48854;BMP280;34673;52.808;17.856;2022-10-23T13:56:15;100509.22;;;14.01
48854;BMP280;34673;52.808;17.856;2022-10-23T13:58:43;100481.81;;;13.85
48854;BMP280;34673;52.808;17.856;2022-10-23T14:01:22;100511.84;;;14.01
48854;BMP280;34673;52.808;17.856;2022-10-23T14:03:50;100512.69;;;14.00
48854;BMP280;34673;52.808;17.856;2022-10-23T14:06:18;100511.94;;;13.95
48854;BMP280;34673;52.808;17.856;2022-10-23T14:08:46;100441.69;;;13.51
48854;BMP280;34673;52.808;17.856;2022-10-23T14:11:15;100516.25;;;13.96
48854;BMP280;34673;52.808;17.856;2022-10-23T14:13:43;100514.59;;;13.92
48854;BMP280;34673;52.808;17.856;2022-10-23T14:16:11;100520.63;;;13.94
48854;BMP280;34673;52.808;17.856;2022-10-23T14:18:39;100494.91;;;13.79
48854;BMP280;34673;52.808;17.856;2022-10-23T14:21:09;100518.94;;;13.91
48854;BMP280;34673;52.808;17.856;2022-10-23T14:23:36;100523.28;;;13.91
48854;BMP280;34673;52.808;17.856;2022-10-23T14:26:10;100519.84;;;13.89
48854;BMP280;34673;52.808;17.856;2022-10-23T14:28:37;100512.94;;;13.88
48854;BMP280;34673;52.808;17.856;2022-10-23T14:31:07;100518.16;;;13.88
48854;BMP280;34673;52.808;17.856;2022-10-23T14:33:35;100513.06;;;13.82
48854;BMP280;34673;52.808;17.856;2022-10-23T14:36:03;100514.00;;;13.79
48854;BMP280;34673;52.808;17.856;2022-10-23T14:38:31;100507.97;;;13.75
48854;BMP280;34673;52.808;17.856;2022-10-23T14:40:59;100511.34;;;13.81
48854;BMP280;34673;52.808;17.856;2022-10-23T14:43:26;100498.44;;;13.76
48854;BMP280;34673;52.808;17.856;2022-10-23T14:45:54;100446.09;;;13.48
48854;BMP280;34673;52.808;17.856;2022-10-23T14:48:21;100482.94;;;13.71
48854;BMP280;34673;52.808;17.856;2022-10-23T14:50:48;100471.81;;;13.63
48854;BMP280;34673;52.808;17.856;2022-10-23T14:53:16;100488.91;;;13.77
48854;BMP280;34673;52.808;17.856;2022-10-23T14:55:43;100487.16;;;13.75
48854;BMP280;34673;52.808;17.856;2022-10-23T14:58:10;100490.53;;;13.81
48854;BMP280;34673;52.808;17.856;2022-10-23T15:00:37;100487.09;;;13.80
48854;BMP280;34673;52.808;17.856;2022-10-23T15:03:05;100487.16;;;13.75
48854;BMP280;34673;52.808;17.856;2022-10-23T15:05:32;100488.91;;;13.77
48854;BMP280;34673;52.808;17.856;2022-10-23T15:07:59;100478.56;;;13.73
48854;BMP280;34673;52.808;17.856;2022-10-23T15:10:27;100476.03;;;13.69
48854;BMP280;34673;52.808;17.856;2022-10-23T15:12:55;100437.59;;;13.40
48854;BMP280;34673;52.808;17.856;2022-10-23T15:15:22;100480.53;;;13.59
48854;BMP280;34673;52.808;17.856;2022-10-23T15:17:49;100458.31;;;13.43
48854;BMP280;34673;52.808;17.856;2022-10-23T15:20:17;100480.72;;;13.50
48854;BMP280;34673;52.808;17.856;2022-10-23T15:22:44;100494.63;;;13.46
48854;BMP280;34673;52.808;17.856;2022-10-23T15:25:12;100486.06;;;13.41
48854;BMP280;34673;52.808;17.856;2022-10-23T15:27:43;100477.56;;;13.33
48854;BMP280;34673;52.808;17.856;2022-10-23T15:30:11;100489.56;;;13.40
48854;BMP280;34673;52.808;17.856;2022-10-23T15:32:39;100490.47;;;13.37
48854;BMP280;34673;52.808;17.856;2022-10-23T15:35:07;100487.94;;;13.34
48854;BMP280;34673;52.808;17.856;2022-10-23T15:37:35;100472.47;;;13.26
48854;BMP280;34673;52.808;17.856;2022-10-23T15:40:02;100427.06;;;12.96
48854;BMP280;34673;52.808;17.856;2022-10-23T15:42:30;100485.47;;;13.23
48854;BMP280;34673;52.808;17.856;2022-10-23T15:44:57;100444.41;;;12.94
48854;BMP280;34673;52.808;17.856;2022-10-23T15:47:25;100480.41;;;13.16
48854;BMP280;34673;52.808;17.856;2022-10-23T15:49:52;100481.38;;;13.10
48854;BMP280;34673;52.808;17.856;2022-10-23T15:52:19;100482.25;;;13.09
48854;BMP280;34673;52.808;17.856;2022-10-23T15:54:47;100452.28;;;12.90
48854;BMP280;34673;52.808;17.856;2022-10-23T15:57:14;100457.38;;;12.96
48854;BMP280;34673;52.808;17.856;2022-10-23T15:59:41;100477.19;;;13.03
48854;BMP280;34673;52.808;17.856;2022-10-23T16:02:10;100472.91;;;12.99
48854;BMP280;34673;52.808;17.856;2022-10-23T16:04:38;100421.47;;;12.68
48854;BMP280;34673;52.808;17.856;2022-10-23T16:07:05;100466.19;;;12.85
48854;BMP280;34673;52.808;17.856;2022-10-23T16:09:33;100463.69;;;12.79
48854;BMP280;34673;52.808;17.856;2022-10-23T16:12:00;100456.03;;;12.70
48854;BMP280;34673;52.808;17.856;2022-10-23T16:14:28;100372.19;;;12.11
48854;BMP280;34673;52.808;17.856;2022-10-23T16:16:55;100422.69;;;12.44
48854;BMP280;34673;52.808;17.856;2022-10-23T16:19:22;100456.22;;;12.58
48854;BMP280;34673;52.808;17.856;2022-10-23T16:21:50;100465.75;;;12.57
48854;BMP280;34673;52.808;17.856;2022-10-23T16:24:17;100458.91;;;12.52
48854;BMP280;34673;52.808;17.856;2022-10-23T16:26:44;100429.84;;;12.30
48854;BMP280;34673;52.808;17.856;2022-10-23T16:29:16;100456.38;;;12.46
48854;BMP280;34673;52.808;17.856;2022-10-23T16:31:43;100435.06;;;12.25